createdAt,value
2019-01-04T00:00:05.503Z,0.00
2019-01-04T00:01:57.934Z,0.00
2019-01-04T00:02:57.909Z,0.00
2019-01-04T00:04:49.830Z,0.00
2019-01-04T00:05:49.824Z,0.00
2019-01-04T00:07:41.745Z,0.00
2019-01-04T00:08:41.737Z,0.00
2019-01-04T00:10:33.641Z,0.00
2019-01-04T00:11:33.645Z,0.00
2019-01-04T00:13:25.566Z,0.00
2019-01-04T00:14:25.554Z,0.00
2019-01-04T00:16:17.458Z,0.00
2019-01-04T00:17:17.473Z,0.00
2019-01-04T00:19:09.388Z,0.00
2019-01-04T00:20:09.371Z,0.00
2019-01-04T00:22:01.280Z,0.00
2019-01-04T00:23:01.282Z,0.00
2019-01-04T00:24:53.212Z,0.00
2019-01-04T00:25:53.191Z,0.00
2019-01-04T00:27:45.130Z,0.00
2019-01-04T00:28:45.105Z,0.00
2019-01-04T00:30:37.007Z,0.00
2019-01-04T00:31:37.016Z,0.00
2019-01-04T00:33:29.442Z,0.00
2019-01-04T00:34:29.428Z,0.00
2019-01-04T00:36:21.341Z,0.00
2019-01-04T00:37:21.345Z,0.00
2019-01-04T00:39:13.279Z,0.00
2019-01-04T00:40:13.261Z,0.00
2019-01-04T00:42:05.173Z,0.00
2019-01-04T00:43:05.172Z,0.00
2019-01-04T00:44:57.105Z,0.00
2019-01-04T00:45:57.082Z,0.00
2019-01-04T00:47:48.980Z,0.00
2019-01-04T00:48:48.990Z,0.00
2019-01-04T00:50:40.918Z,0.00
2019-01-04T00:51:40.896Z,0.00
2019-01-04T00:53:32.837Z,0.00
2019-01-04T00:54:32.823Z,0.00
2019-01-04T00:56:24.722Z,0.00
2019-01-04T00:57:24.727Z,0.00
2019-01-04T00:59:16.657Z,0.00
2019-01-04T01:00:16.645Z,0.00
2019-01-04T01:02:08.558Z,0.00
2019-01-04T01:03:08.549Z,0.00
2019-01-04T01:05:00.974Z,0.00
2019-01-04T01:06:00.960Z,0.00
2019-01-04T01:07:52.869Z,0.00
2019-01-04T01:08:52.876Z,0.00
2019-01-04T01:10:44.796Z,0.00
2019-01-04T01:11:44.782Z,0.00
2019-01-04T01:13:36.685Z,0.00
2019-01-04T01:14:36.692Z,0.00
2019-01-04T01:16:28.631Z,0.00
2019-01-04T01:17:28.625Z,0.00
2019-01-04T01:19:20.525Z,0.00
2019-01-04T01:20:20.532Z,0.00
2019-01-04T01:22:12.455Z,0.00
2019-01-04T01:23:12.438Z,0.00
2019-01-04T01:25:04.408Z,0.00
2019-01-04T01:26:04.394Z,0.00
2019-01-04T01:27:56.316Z,0.00
2019-01-04T01:28:56.303Z,0.00
2019-01-04T01:30:48.225Z,0.00
2019-01-04T01:31:48.216Z,0.00
2019-01-04T01:33:40.119Z,0.00
2019-01-04T01:34:40.120Z,0.00
2019-01-04T01:36:32.567Z,0.00
2019-01-04T01:37:32.527Z,0.00
2019-01-04T01:39:24.465Z,0.00
2019-01-04T01:40:24.476Z,0.00
2019-01-04T01:42:16.386Z,0.00
2019-01-04T01:43:16.368Z,0.00
2019-01-04T01:45:08.281Z,0.00
2019-01-04T01:46:08.289Z,0.00
2019-01-04T01:48:00.216Z,0.00
2019-01-04T01:49:00.196Z,0.00
2019-01-04T01:50:52.593Z,0.00
2019-01-04T01:51:52.600Z,0.00
2019-01-04T01:53:44.524Z,0.00
2019-01-04T01:54:44.506Z,0.00
2019-01-04T01:56:36.484Z,0.00
2019-01-04T01:57:36.453Z,0.00
2019-01-04T01:59:28.835Z,0.00
2019-01-04T02:00:28.835Z,0.00
2019-01-04T02:02:20.763Z,0.00
2019-01-04T02:03:20.748Z,0.00
2019-01-04T02:05:12.691Z,0.00
2019-01-04T02:06:12.665Z,0.00
2019-01-04T02:08:04.597Z,0.00
2019-01-04T02:09:07.538Z,0.00
2019-01-04T02:10:56.489Z,0.00
2019-01-04T02:11:56.493Z,0.00
2019-01-04T02:13:48.412Z,0.00
2019-01-04T02:14:48.398Z,0.00
2019-01-04T02:16:40.304Z,0.00
2019-01-04T02:17:40.308Z,0.00
2019-01-04T02:19:32.723Z,0.00
2019-01-04T02:20:32.706Z,0.00
2019-01-04T02:22:24.621Z,0.00
2019-01-04T02:23:24.622Z,0.00
2019-01-04T02:25:16.548Z,0.00
2019-01-04T02:26:16.531Z,0.00
2019-01-04T02:28:08.466Z,0.00
2019-01-04T02:29:08.446Z,0.00
2019-01-04T02:31:00.356Z,0.00
2019-01-04T02:32:00.440Z,0.00
2019-01-04T02:33:52.281Z,0.00
2019-01-04T02:34:52.270Z,0.00
2019-01-04T02:36:44.184Z,0.00
2019-01-04T02:37:44.193Z,0.00
2019-01-04T02:39:36.115Z,0.00
2019-01-04T02:40:36.097Z,0.00
2019-01-04T02:42:28.006Z,0.00
2019-01-04T02:43:28.010Z,0.00
2019-01-04T02:45:19.942Z,0.00
2019-01-04T02:46:19.918Z,0.00
2019-01-04T02:47:19.933Z,0.00
2019-01-04T02:48:19.945Z,0.00
2019-01-04T02:49:19.965Z,0.00
2019-01-04T02:50:19.966Z,0.00
2019-01-04T02:51:19.975Z,0.00
2019-01-04T02:52:19.990Z,0.00
2019-01-04T02:53:20.001Z,0.00
2019-01-04T02:54:20.016Z,0.00
2019-01-04T02:55:20.024Z,0.00
2019-01-04T02:56:20.037Z,0.00
2019-01-04T02:57:20.051Z,0.00
2019-01-04T02:58:20.063Z,0.00
2019-01-04T02:59:20.075Z,0.00
2019-01-04T03:00:20.087Z,0.00
2019-01-04T03:01:20.104Z,0.00
2019-01-04T03:02:20.106Z,0.00
2019-01-04T03:03:20.124Z,0.00
2019-01-04T03:04:20.136Z,0.00
2019-01-04T03:05:20.145Z,0.00
2019-01-04T03:06:20.157Z,0.00
2019-01-04T03:07:20.170Z,0.00
2019-01-04T03:08:20.193Z,0.00
2019-01-04T03:38:09.978Z,0.00
2019-01-04T03:39:09.966Z,0.00
2019-01-04T03:41:01.906Z,0.00
2019-01-04T03:42:01.853Z,0.00
2019-01-04T03:43:53.768Z,0.00
2019-01-04T03:44:53.750Z,0.00
2019-01-04T03:46:45.672Z,0.00
2019-01-04T03:47:45.658Z,0.00
2019-01-04T03:49:37.559Z,0.00
2019-01-04T03:50:37.561Z,0.00
2019-01-04T03:52:29.481Z,0.00
2019-01-04T03:53:29.471Z,0.00
2019-01-04T03:55:21.424Z,0.00
2019-01-04T03:56:21.432Z,0.00
2019-01-04T03:58:13.367Z,0.00
2019-01-04T03:59:13.350Z,0.00
2019-01-04T04:01:05.250Z,0.00
2019-01-04T04:02:05.243Z,0.00
2019-01-04T04:03:57.674Z,0.00
2019-01-04T04:04:57.650Z,0.00
2019-01-04T04:06:49.573Z,0.00
2019-01-04T04:07:49.556Z,0.00
2019-01-04T04:09:41.956Z,0.00
2019-01-04T04:10:41.961Z,0.00
2019-01-04T04:12:33.909Z,0.00
2019-01-04T04:13:33.897Z,0.00
2019-01-04T04:15:25.795Z,0.00
2019-01-04T04:16:25.798Z,0.00
2019-01-04T04:18:17.721Z,0.00
2019-01-04T04:19:17.710Z,0.00
2019-01-04T04:21:09.620Z,0.00
2019-01-04T04:22:09.617Z,0.00
2019-01-04T04:24:01.595Z,0.00
2019-01-04T04:25:01.558Z,0.00
2019-01-04T04:26:53.454Z,0.00
2019-01-04T04:27:53.468Z,0.00
2019-01-04T04:29:45.381Z,0.00
2019-01-04T04:30:45.371Z,0.00
2019-01-04T04:32:37.301Z,0.00
2019-01-04T04:33:37.280Z,0.00
2019-01-04T04:35:29.203Z,0.00
2019-01-04T04:36:29.193Z,0.00
2019-01-04T04:38:21.147Z,0.00
2019-01-04T04:39:21.147Z,0.00
2019-01-04T04:41:13.032Z,0.00
2019-01-04T04:42:13.046Z,0.00
2019-01-04T04:44:04.977Z,0.00
2019-01-04T04:45:04.957Z,0.00
2019-01-04T04:46:56.862Z,0.00
2019-01-04T04:47:56.862Z,0.00
2019-01-04T04:49:49.283Z,0.00
2019-01-04T04:50:49.268Z,0.00
2019-01-04T04:52:41.171Z,0.00
2019-01-04T04:53:41.176Z,0.00
2019-01-04T04:55:33.106Z,0.00
2019-01-04T04:56:33.090Z,0.00
2019-01-04T04:58:25.019Z,0.00
2019-01-04T04:59:25.012Z,0.00
2019-01-04T05:01:17.399Z,0.00
2019-01-04T05:02:17.403Z,0.00
2019-01-04T05:04:09.344Z,0.00
2019-01-04T05:05:09.327Z,0.00
2019-01-04T05:07:01.234Z,0.00
2019-01-04T05:08:01.249Z,0.00
2019-01-04T05:09:53.171Z,0.00
2019-01-04T05:10:53.162Z,0.00
2019-01-04T05:12:45.070Z,0.00
2019-01-04T05:13:45.075Z,0.00
2019-01-04T05:15:37.011Z,0.00
2019-01-04T05:16:36.997Z,0.00
2019-01-04T05:18:29.392Z,0.00
2019-01-04T05:19:29.396Z,0.00
2019-01-04T05:21:21.342Z,0.00
2019-01-04T05:22:21.311Z,0.00
2019-01-04T05:24:13.242Z,0.00
2019-01-04T05:25:13.228Z,0.00
2019-01-04T05:27:05.130Z,0.00
2019-01-04T05:28:05.131Z,0.00
2019-01-04T05:29:57.063Z,0.00
2019-01-04T05:30:57.038Z,0.00
2019-01-04T05:32:48.947Z,0.00
2019-01-04T05:33:48.950Z,0.00
2019-01-04T05:35:40.891Z,0.00
2019-01-04T05:36:40.877Z,0.00
2019-01-04T05:38:32.776Z,0.00
2019-01-04T05:39:32.784Z,0.00
2019-01-04T05:41:24.710Z,0.00
2019-01-04T05:42:24.699Z,0.00
2019-01-04T05:44:16.605Z,0.00
2019-01-04T05:45:16.614Z,0.00
2019-01-04T05:47:09.030Z,0.00
2019-01-04T05:48:09.018Z,0.00
2019-01-04T05:50:01.473Z,0.00
2019-01-04T05:51:01.450Z,0.00
2019-01-04T05:52:53.847Z,0.00
2019-01-04T05:53:53.853Z,0.00
2019-01-04T05:55:45.785Z,0.00
2019-01-04T05:56:45.766Z,0.00
2019-01-04T05:57:45.781Z,0.00
2019-01-04T05:58:45.791Z,0.00
2019-01-04T05:59:45.801Z,0.00
2019-01-04T06:00:45.817Z,0.00
2019-01-04T06:01:45.830Z,0.00
2019-01-04T06:02:45.841Z,0.00
2019-01-04T06:03:45.859Z,0.00
2019-01-04T06:04:45.866Z,0.00
2019-01-04T06:05:45.878Z,0.00
2019-01-04T06:06:45.884Z,0.00
2019-01-04T06:07:45.917Z,0.00
2019-01-04T06:08:45.917Z,0.00
2019-01-04T06:09:45.921Z,0.00
2019-01-04T06:10:45.936Z,0.00
2019-01-04T06:11:45.950Z,0.00
2019-01-04T06:12:45.959Z,0.00
2019-01-04T06:13:45.977Z,0.00
2019-01-04T06:14:45.984Z,0.00
2019-01-04T06:15:45.991Z,0.00
2019-01-04T06:16:46.016Z,0.00
2019-01-04T06:17:46.017Z,0.00
2019-01-04T06:18:46.028Z,0.00
2019-01-04T06:19:46.041Z,0.00
2019-01-04T06:20:46.054Z,0.00
2019-01-04T06:21:46.064Z,0.00
2019-01-04T06:22:46.080Z,0.00
2019-01-04T06:23:46.092Z,0.00
2019-01-04T06:24:46.106Z,0.00
2019-01-04T06:25:46.111Z,0.00
2019-01-04T06:26:46.124Z,0.00
2019-01-04T06:27:46.139Z,0.00
2019-01-04T06:28:46.151Z,0.00
2019-01-04T06:29:46.163Z,0.00
2019-01-04T06:30:46.178Z,0.00
2019-01-04T06:31:46.196Z,0.00
2019-01-04T06:32:46.205Z,0.00
2019-01-04T06:33:46.209Z,0.00
2019-01-04T06:34:46.256Z,0.00
2019-01-04T06:35:46.234Z,0.00
2019-01-04T06:36:46.247Z,0.00
2019-01-04T06:37:46.254Z,0.00
2019-01-04T06:38:46.269Z,0.00
2019-01-04T06:39:46.285Z,0.00
2019-01-04T06:40:46.329Z,0.00
2019-01-04T06:41:46.310Z,0.00
2019-01-04T06:42:46.318Z,0.00
2019-01-04T06:43:46.331Z,0.00
2019-01-04T06:44:46.341Z,0.00
2019-01-04T06:45:46.352Z,0.00
2019-01-04T06:46:46.379Z,0.00
2019-01-04T06:47:46.378Z,0.00
2019-01-04T06:48:46.391Z,0.00
2019-01-04T06:49:46.399Z,0.00
2019-01-04T06:50:46.413Z,0.00
2019-01-04T06:51:46.432Z,0.00
2019-01-04T06:52:46.437Z,0.00
2019-01-04T06:53:46.444Z,0.00
2019-01-04T06:54:46.460Z,0.00
2019-01-04T06:55:46.477Z,0.00
2019-01-04T06:56:46.488Z,0.00
2019-01-04T06:57:46.495Z,0.00
2019-01-04T06:58:46.504Z,0.00
2019-01-04T06:59:46.521Z,0.00
2019-01-04T07:00:46.538Z,0.00
2019-01-04T07:01:46.551Z,0.00
2019-01-04T07:02:46.552Z,0.00
2019-01-04T07:03:46.566Z,0.00
2019-01-04T07:04:46.578Z,0.00
2019-01-04T07:05:46.592Z,0.00
2019-01-04T07:06:46.603Z,0.00
2019-01-04T07:07:46.617Z,0.00
2019-01-04T07:08:46.629Z,0.00
2019-01-04T07:09:46.650Z,0.00
2019-01-04T07:10:46.650Z,0.00
2019-01-04T07:11:46.981Z,0.00
2019-01-04T07:12:46.673Z,0.00
2019-01-04T07:13:46.682Z,4.00
2019-01-04T07:14:46.698Z,4.00
2019-01-04T07:15:46.712Z,4.00
2019-01-04T07:16:46.720Z,0.00
2019-01-04T07:17:47.300Z,4.00
2019-01-04T07:18:46.749Z,8.00
2019-01-04T07:19:46.758Z,4.00
2019-01-04T07:20:46.767Z,4.00
2019-01-04T07:21:46.778Z,8.00
2019-01-04T07:22:46.795Z,8.00
2019-01-04T07:23:46.805Z,8.00
2019-01-04T07:24:46.831Z,8.00
2019-01-04T07:25:46.828Z,8.00
2019-01-04T07:26:46.845Z,8.00
2019-01-04T07:27:46.859Z,12.00
2019-01-04T07:28:46.864Z,8.00
2019-01-04T07:29:46.874Z,8.00
2019-01-04T07:30:46.884Z,8.00
2019-01-04T07:31:46.898Z,12.00
2019-01-04T07:32:46.913Z,8.00
2019-01-04T07:33:46.926Z,12.00
2019-01-04T07:34:46.939Z,20.00
2019-01-04T07:35:46.949Z,24.00
2019-01-04T07:36:46.960Z,28.00
2019-01-04T07:37:46.968Z,36.00
2019-01-04T07:38:46.987Z,44.00
2019-01-04T07:39:46.995Z,44.00
2019-01-04T07:40:47.008Z,40.00
2019-01-04T07:41:47.018Z,44.00
2019-01-04T07:42:47.030Z,44.00
2019-01-04T07:43:47.048Z,52.00
2019-01-04T07:44:47.054Z,56.00
2019-01-04T07:45:47.065Z,56.00
2019-01-04T07:46:47.081Z,56.00
2019-01-04T07:47:47.091Z,64.00
2019-01-04T07:48:47.102Z,64.00
2019-01-04T07:49:47.117Z,80.00
2019-01-04T07:50:47.126Z,80.00
2019-01-04T07:51:47.141Z,80.00
2019-01-04T07:52:47.152Z,96.00
2019-01-04T07:53:47.955Z,100.00
2019-01-04T07:54:47.178Z,104.00
2019-01-04T07:55:47.186Z,116.00
2019-01-04T07:56:47.199Z,128.00
2019-01-04T07:57:47.214Z,140.00
2019-01-04T07:58:47.223Z,140.00
2019-01-04T07:59:47.237Z,132.00
2019-01-04T08:00:47.247Z,132.00
2019-01-04T08:01:47.257Z,148.00
2019-01-04T08:02:47.275Z,168.00
2019-01-04T08:03:47.286Z,196.00
2019-01-04T08:04:47.296Z,224.00
2019-01-04T08:05:47.312Z,248.00
2019-01-04T08:06:47.322Z,232.00
2019-01-04T08:07:47.332Z,204.00
2019-01-04T08:08:47.343Z,176.00
2019-01-04T08:09:47.353Z,180.00
2019-01-04T08:10:47.368Z,200.00
2019-01-04T08:11:47.383Z,196.00
2019-01-04T08:12:47.391Z,200.00
2019-01-04T08:13:47.405Z,180.00
2019-01-04T08:14:48.736Z,156.00
2019-01-04T08:15:47.430Z,212.00
2019-01-04T08:16:47.443Z,348.00
2019-01-04T08:17:47.451Z,468.00
2019-01-04T08:18:47.464Z,548.00
2019-01-04T08:19:47.479Z,476.00
2019-01-04T08:20:47.489Z,432.00
2019-01-04T08:21:47.506Z,496.00
2019-01-04T08:22:47.511Z,556.00
2019-01-04T08:23:47.541Z,612.00
2019-01-04T08:24:47.534Z,720.00
2019-01-04T08:25:47.557Z,712.00
2019-01-04T08:26:47.563Z,756.00
2019-01-04T08:27:47.572Z,668.00
2019-01-04T08:28:47.609Z,584.00
2019-01-04T08:29:47.599Z,480.00
2019-01-04T08:30:47.612Z,436.00
2019-01-04T08:31:47.623Z,408.00
2019-01-04T08:32:47.632Z,460.00
2019-01-04T08:33:47.647Z,452.00
2019-01-04T08:34:47.661Z,432.00
2019-01-04T08:35:47.672Z,472.00
2019-01-04T08:36:47.686Z,496.00
2019-01-04T08:37:47.693Z,556.00
2019-01-04T08:38:47.709Z,560.00
2019-01-04T08:39:47.725Z,592.00
2019-01-04T08:40:47.733Z,656.00
2019-01-04T08:41:47.745Z,716.00
2019-01-04T08:42:47.761Z,748.00
2019-01-04T08:43:47.772Z,756.00
2019-01-04T08:44:47.782Z,744.00
2019-01-04T08:45:47.792Z,732.00
2019-01-04T08:46:47.805Z,720.00
2019-01-04T08:47:47.821Z,720.00
2019-01-04T08:48:47.832Z,740.00
2019-01-04T08:49:47.842Z,736.00
2019-01-04T08:50:47.856Z,724.00
2019-01-04T08:51:47.865Z,720.00
2019-01-04T08:52:47.881Z,700.00
2019-01-04T08:53:47.895Z,668.00
2019-01-04T08:54:47.905Z,600.00
2019-01-04T08:55:47.922Z,592.00
2019-01-04T08:56:47.960Z,660.00
2019-01-04T08:57:47.946Z,632.00
2019-01-04T08:58:47.958Z,668.00
2019-01-04T08:59:47.966Z,640.00
2019-01-04T09:00:47.987Z,632.00
2019-01-04T09:01:47.996Z,724.00
2019-01-04T09:02:48.010Z,768.00
2019-01-04T09:03:48.018Z,664.00
2019-01-04T09:04:48.029Z,816.00
2019-01-04T09:05:48.052Z,780.00
2019-01-04T09:06:48.077Z,796.00
2019-01-04T09:07:48.068Z,768.00
2019-01-04T09:08:48.077Z,848.00
2019-01-04T09:09:48.092Z,848.00
2019-01-04T09:10:48.104Z,848.00
2019-01-04T09:11:48.116Z,872.00
2019-01-04T09:12:48.126Z,896.00
2019-01-04T09:13:48.146Z,1012.00
2019-01-04T09:14:48.159Z,1112.00
2019-01-04T09:15:48.166Z,1032.00
2019-01-04T09:16:48.180Z,1032.00
2019-01-04T09:17:48.192Z,1008.00
2019-01-04T09:18:48.205Z,1032.00
2019-01-04T09:19:48.212Z,1028.00
2019-01-04T09:20:48.225Z,984.00
2019-01-04T09:21:48.240Z,908.00
2019-01-04T09:22:48.263Z,776.00
2019-01-04T09:23:48.266Z,788.00
2019-01-04T09:24:48.279Z,780.00
2019-01-04T09:25:48.306Z,752.00
2019-01-04T09:26:48.316Z,888.00
2019-01-04T09:27:48.319Z,892.00
2019-01-04T09:28:48.328Z,832.00
2019-01-04T09:29:48.340Z,700.00
2019-01-04T09:30:48.349Z,664.00
2019-01-04T09:31:48.365Z,764.00
2019-01-04T09:32:48.379Z,884.00
2019-01-04T09:33:48.394Z,928.00
2019-01-04T09:34:48.403Z,904.00
2019-01-04T09:35:48.413Z,912.00
2019-01-04T09:36:48.429Z,916.00
2019-01-04T09:37:48.440Z,932.00
2019-01-04T09:38:48.452Z,1008.00
2019-01-04T09:39:48.463Z,1028.00
2019-01-04T09:40:48.477Z,1072.00
2019-01-04T09:41:48.489Z,916.00
2019-01-04T09:42:48.505Z,880.00
2019-01-04T09:43:48.519Z,1116.00
2019-01-04T09:44:48.530Z,1252.00
2019-01-04T09:45:48.537Z,1296.00
2019-01-04T09:46:48.557Z,1360.00
2019-01-04T09:47:48.574Z,1424.00
2019-01-04T09:48:48.574Z,1428.00
2019-01-04T09:49:48.591Z,1444.00
2019-01-04T09:50:48.605Z,1492.00
2019-01-04T09:51:48.619Z,1524.00
2019-01-04T09:52:48.628Z,1504.00
2019-01-04T09:53:48.639Z,1508.00
2019-01-04T09:54:48.651Z,1668.00
2019-01-04T09:55:48.671Z,1868.00
2019-01-04T09:56:48.676Z,2000.00
2019-01-04T09:57:48.689Z,2200.00
2019-01-04T09:58:48.703Z,2240.00
2019-01-04T09:59:48.724Z,2324.00
2019-01-04T10:00:48.738Z,2304.00
2019-01-04T10:01:48.744Z,2396.00
2019-01-04T10:02:48.757Z,2192.00
2019-01-04T10:03:48.772Z,2112.00
2019-01-04T10:04:48.782Z,2076.00
2019-01-04T10:05:48.802Z,2092.00
2019-01-04T10:06:48.804Z,2144.00
2019-01-04T10:07:48.821Z,2264.00
2019-01-04T10:08:48.833Z,2236.00
2019-01-04T10:09:48.849Z,2164.00
2019-01-04T10:10:48.859Z,2164.00
2019-01-04T10:11:48.895Z,2236.00
2019-01-04T10:12:48.876Z,2272.00
2019-01-04T10:13:48.895Z,2280.00
2019-01-04T10:14:48.908Z,2252.00
2019-01-04T10:15:48.918Z,2208.00
2019-01-04T10:16:48.942Z,2152.00
2019-01-04T10:17:48.947Z,2236.00
2019-01-04T10:18:48.955Z,2408.00
2019-01-04T10:19:48.971Z,2596.00
2019-01-04T10:20:48.991Z,2808.00
2019-01-04T10:21:48.995Z,2808.00
2019-01-04T10:22:49.010Z,2712.00
2019-01-04T10:23:49.024Z,2628.00
2019-01-04T10:24:49.033Z,2776.00
2019-01-04T10:25:49.047Z,2604.00
2019-01-04T10:26:49.059Z,2372.00
2019-01-04T10:27:49.074Z,2376.00
2019-01-04T10:28:49.090Z,2336.00
2019-01-04T10:29:49.095Z,2244.00
2019-01-04T10:30:49.114Z,2200.00
2019-01-04T10:31:49.128Z,2044.00
2019-01-04T10:32:49.141Z,1944.00
2019-01-04T10:33:49.148Z,1852.00
2019-01-04T10:34:49.165Z,1860.00
2019-01-04T10:35:49.177Z,1776.00
2019-01-04T10:36:49.189Z,1840.00
2019-01-04T10:37:49.200Z,1860.00
2019-01-04T10:38:49.215Z,1672.00
2019-01-04T10:39:49.228Z,1468.00
2019-01-04T10:40:49.271Z,1428.00
2019-01-04T10:41:49.258Z,1528.00
2019-01-04T10:42:49.274Z,1676.00
2019-01-04T10:43:49.282Z,1764.00
2019-01-04T10:44:49.291Z,1788.00
2019-01-04T10:45:49.303Z,1800.00
2019-01-04T10:46:49.319Z,1772.00
2019-01-04T10:47:49.328Z,1744.00
2019-01-04T10:48:49.343Z,1724.00
2019-01-04T10:49:49.363Z,1656.00
2019-01-04T10:50:49.369Z,1576.00
2019-01-04T10:51:49.381Z,1560.00
2019-01-04T10:52:49.395Z,1476.00
2019-01-04T10:53:49.408Z,1424.00
2019-01-04T10:54:49.420Z,1376.00
2019-01-04T10:55:49.438Z,1276.00
2019-01-04T10:56:49.445Z,1188.00
2019-01-04T10:57:49.459Z,1196.00
2019-01-04T10:58:49.474Z,1264.00
2019-01-04T10:59:49.485Z,1468.00
2019-01-04T11:00:49.522Z,1608.00
2019-01-04T11:01:49.514Z,1676.00
2019-01-04T11:02:49.523Z,1668.00
2019-01-04T11:03:49.936Z,1564.00
2019-01-04T11:04:49.554Z,1352.00
2019-01-04T11:05:49.565Z,1312.00
2019-01-04T11:06:49.575Z,1368.00
2019-01-04T11:07:49.589Z,1212.00
2019-01-04T11:08:49.613Z,1324.00
2019-01-04T11:09:49.615Z,1588.00
2019-01-04T11:10:49.634Z,1540.00
2019-01-04T11:11:49.649Z,1448.00
2019-01-04T11:12:49.653Z,1608.00
2019-01-04T11:13:49.673Z,1744.00
2019-01-04T11:14:49.679Z,1616.00
2019-01-04T11:15:49.692Z,1524.00
2019-01-04T11:16:49.704Z,1560.00
2019-01-04T11:17:49.718Z,1592.00
2019-01-04T11:18:49.733Z,1848.00
2019-01-04T11:19:49.742Z,1704.00
2019-01-04T11:20:49.758Z,1736.00
2019-01-04T11:21:49.770Z,1672.00
2019-01-04T11:22:49.783Z,1884.00
2019-01-04T11:23:49.799Z,1776.00
2019-01-04T11:24:49.809Z,1468.00
2019-01-04T11:25:49.821Z,1152.00
2019-01-04T11:26:49.836Z,1132.00
2019-01-04T11:27:49.850Z,1232.00
2019-01-04T11:28:49.859Z,1268.00
2019-01-04T11:29:49.871Z,1140.00
2019-01-04T11:30:49.901Z,1012.00
2019-01-04T11:31:49.899Z,1236.00
2019-01-04T11:32:49.916Z,1264.00
2019-01-04T11:33:49.931Z,1244.00
2019-01-04T11:34:49.938Z,1232.00
2019-01-04T11:35:49.954Z,1208.00
2019-01-04T11:36:49.962Z,1392.00
2019-01-04T11:37:49.976Z,1520.00
2019-01-04T11:38:49.996Z,1460.00
2019-01-04T11:39:49.999Z,1348.00
2019-01-04T11:40:50.013Z,1324.00
2019-01-04T11:41:50.034Z,1332.00
2019-01-04T11:42:50.042Z,1212.00
2019-01-04T11:43:50.057Z,1248.00
2019-01-04T11:44:50.063Z,1288.00
2019-01-04T11:45:50.077Z,1300.00
2019-01-04T11:46:50.091Z,1124.00
2019-01-04T11:47:50.104Z,1008.00
2019-01-04T11:48:50.115Z,992.00
2019-01-04T11:49:50.129Z,928.00
2019-01-04T11:50:50.143Z,916.00
2019-01-04T11:51:50.159Z,824.00
2019-01-04T11:52:50.166Z,772.00
2019-01-04T11:53:50.187Z,788.00
2019-01-04T11:54:50.191Z,764.00
2019-01-04T11:55:50.206Z,740.00
2019-01-04T11:56:50.218Z,736.00
2019-01-04T11:57:50.234Z,740.00
2019-01-04T11:58:50.244Z,796.00
2019-01-04T11:59:50.270Z,820.00
2019-01-04T12:00:50.268Z,824.00
2019-01-04T12:01:50.280Z,836.00
2019-01-04T12:02:50.295Z,864.00
2019-01-04T12:03:50.313Z,888.00
2019-01-04T12:04:50.319Z,924.00
2019-01-04T12:05:50.335Z,1040.00
2019-01-04T12:06:50.350Z,1184.00
2019-01-04T12:07:50.359Z,1336.00
2019-01-04T12:08:50.372Z,1388.00
2019-01-04T12:09:50.382Z,1344.00
2019-01-04T12:10:50.395Z,1252.00
2019-01-04T12:11:50.411Z,1284.00
2019-01-04T12:12:50.419Z,1256.00
2019-01-04T12:13:50.434Z,1256.00
2019-01-04T12:14:50.467Z,1372.00
2019-01-04T12:15:50.464Z,1416.00
2019-01-04T12:16:50.478Z,1336.00
2019-01-04T12:17:50.485Z,1260.00
2019-01-04T12:18:50.522Z,1136.00
2019-01-04T12:19:50.520Z,1072.00
2019-01-04T12:20:50.526Z,968.00
2019-01-04T12:21:50.535Z,876.00
2019-01-04T12:22:50.549Z,788.00
2019-01-04T12:23:50.562Z,708.00
2019-01-04T12:24:50.570Z,664.00
2019-01-04T12:25:50.585Z,696.00
2019-01-04T12:26:50.601Z,700.00
2019-01-04T12:27:50.614Z,752.00
2019-01-04T12:28:50.630Z,748.00
2019-01-04T12:29:50.636Z,712.00
2019-01-04T12:30:50.645Z,708.00
2019-01-04T12:31:50.664Z,720.00
2019-01-04T12:32:50.674Z,744.00
2019-01-04T12:33:50.707Z,768.00
2019-01-04T12:34:50.701Z,760.00
2019-01-04T12:35:50.714Z,748.00
2019-01-04T12:36:50.725Z,740.00
2019-01-04T12:37:50.734Z,716.00
2019-01-04T12:38:50.758Z,648.00
2019-01-04T12:39:50.763Z,636.00
2019-01-04T12:40:50.774Z,668.00
2019-01-04T12:41:50.795Z,720.00
2019-01-04T12:42:50.803Z,776.00
2019-01-04T12:43:50.817Z,768.00
2019-01-04T12:44:50.820Z,732.00
2019-01-04T12:45:50.837Z,708.00
2019-01-04T12:46:50.851Z,692.00
2019-01-04T12:47:50.862Z,680.00
2019-01-04T12:48:50.876Z,680.00
2019-01-04T12:49:50.890Z,656.00
2019-01-04T12:50:50.950Z,664.00
2019-01-04T12:51:50.916Z,624.00
2019-01-04T12:52:51.319Z,588.00
2019-01-04T12:53:50.935Z,564.00
2019-01-04T12:54:50.950Z,524.00
2019-01-04T12:55:50.964Z,500.00
2019-01-04T12:56:50.981Z,496.00
2019-01-04T12:57:50.984Z,500.00
2019-01-04T12:58:50.999Z,536.00
2019-01-04T12:59:51.014Z,576.00
2019-01-04T13:00:51.033Z,576.00
2019-01-04T13:01:51.038Z,568.00
2019-01-04T13:02:51.047Z,548.00
2019-01-04T13:03:51.061Z,540.00
2019-01-04T13:04:51.071Z,552.00
2019-01-04T13:05:51.090Z,588.00
2019-01-04T13:06:51.104Z,620.00
2019-01-04T13:07:51.109Z,640.00
2019-01-04T13:08:51.125Z,636.00
2019-01-04T13:09:51.135Z,556.00
2019-01-04T13:10:51.151Z,548.00
2019-01-04T13:11:51.159Z,584.00
2019-01-04T13:12:51.177Z,624.00
2019-01-04T13:13:51.184Z,552.00
2019-01-04T13:14:51.204Z,516.00
2019-01-04T13:15:51.224Z,520.00
2019-01-04T13:16:51.218Z,528.00
2019-01-04T13:17:51.237Z,560.00
2019-01-04T13:18:51.245Z,504.00
2019-01-04T13:19:51.262Z,492.00
2019-01-04T13:20:51.275Z,520.00
2019-01-04T13:21:51.311Z,520.00
2019-01-04T13:22:51.301Z,500.00
2019-01-04T13:23:51.310Z,540.00
2019-01-04T13:24:51.320Z,452.00
2019-01-04T13:25:51.335Z,464.00
2019-01-04T13:26:51.349Z,456.00
2019-01-04T13:27:51.366Z,440.00
2019-01-04T13:28:51.372Z,428.00
2019-01-04T13:29:51.382Z,416.00
2019-01-04T13:30:51.395Z,404.00
2019-01-04T13:31:51.441Z,412.00
2019-01-04T13:32:51.419Z,416.00
2019-01-04T13:33:51.440Z,416.00
2019-01-04T13:34:51.449Z,420.00
2019-01-04T13:35:51.455Z,428.00
2019-01-04T13:36:51.469Z,420.00
2019-01-04T13:37:51.486Z,388.00
2019-01-04T13:38:51.492Z,388.00
2019-01-04T13:39:51.511Z,460.00
2019-01-04T13:40:51.525Z,448.00
2019-01-04T13:41:51.533Z,428.00
2019-01-04T13:42:51.552Z,472.00
2019-01-04T13:43:51.559Z,512.00
2019-01-04T13:44:51.572Z,444.00
2019-01-04T13:45:51.587Z,416.00
2019-01-04T13:46:51.593Z,424.00
2019-01-04T13:47:51.610Z,436.00
2019-01-04T13:48:51.613Z,456.00
2019-01-04T13:49:51.631Z,392.00
2019-01-04T13:50:51.641Z,432.00
2019-01-04T13:51:51.652Z,416.00
2019-01-04T13:52:51.667Z,372.00
2019-01-04T13:53:51.679Z,344.00
2019-01-04T13:54:51.691Z,348.00
2019-01-04T13:55:51.704Z,348.00
2019-01-04T13:56:51.716Z,344.00
2019-01-04T13:57:51.728Z,388.00
2019-01-04T13:58:51.741Z,400.00
2019-01-04T13:59:51.753Z,352.00
2019-01-04T14:00:51.764Z,340.00
2019-01-04T14:01:51.778Z,320.00
2019-01-04T14:02:51.791Z,320.00
2019-01-04T14:03:51.804Z,280.00
2019-01-04T14:04:51.817Z,260.00
2019-01-04T14:05:51.844Z,308.00
2019-01-04T14:06:51.835Z,264.00
2019-01-04T14:07:51.855Z,276.00
2019-01-04T14:08:51.864Z,236.00
2019-01-04T14:09:51.873Z,240.00
2019-01-04T14:10:51.886Z,268.00
2019-01-04T14:11:51.898Z,260.00
2019-01-04T14:12:51.906Z,272.00
2019-01-04T14:13:51.922Z,280.00
2019-01-04T14:14:51.937Z,264.00
2019-01-04T14:15:51.947Z,252.00
2019-01-04T14:16:51.956Z,256.00
2019-01-04T14:17:51.968Z,240.00
2019-01-04T14:18:51.986Z,272.00
2019-01-04T14:19:51.997Z,272.00
2019-01-04T14:20:52.007Z,272.00
2019-01-04T14:21:52.022Z,272.00
2019-01-04T14:22:52.029Z,244.00
2019-01-04T14:23:52.043Z,216.00
2019-01-04T14:24:52.060Z,200.00
2019-01-04T14:25:52.066Z,188.00
2019-01-04T14:26:52.083Z,180.00
2019-01-04T14:27:52.095Z,172.00
2019-01-04T14:28:52.100Z,160.00
2019-01-04T14:29:52.114Z,144.00
2019-01-04T14:30:52.170Z,156.00
2019-01-04T14:31:52.139Z,156.00
2019-01-04T14:32:52.156Z,160.00
2019-01-04T14:33:52.163Z,148.00
2019-01-04T14:34:52.175Z,152.00
2019-01-04T14:35:52.191Z,136.00
2019-01-04T14:36:52.200Z,132.00
2019-01-04T14:37:52.217Z,108.00
2019-01-04T14:38:52.226Z,104.00
2019-01-04T14:39:52.238Z,100.00
2019-01-04T14:40:52.246Z,104.00
2019-01-04T14:41:52.263Z,112.00
2019-01-04T14:42:52.278Z,112.00
2019-01-04T14:43:52.288Z,104.00
2019-01-04T14:44:52.293Z,96.00
2019-01-04T14:45:52.310Z,80.00